Time;durP1;ratioP1;P1;durP2;ratioP2;P2;SDS_P1;SDS_P2;PMS_P1;PMS_P2;Temp;Humidity;BMP_temperature;BMP_pressure;BME280_temperature;BME280_humidity;BME280_pressure;Samples;Min_cycle;Max_cycle;Signal;HPM_P1;HPM_P2
2022/11/07 00:02:22;;;;;;;8.97;8.07;;;9.20;99.90;;;;;;5132896;27;20718;-70
2022/11/07 00:04:49;;;;;;;8.73;7.83;;;9.20;99.90;;;;;;5129003;27;20208;-72
2022/11/07 00:07:15;;;;;;;8.50;7.67;;;9.20;99.90;;;;;;5129217;27;20217;-72
2022/11/07 00:09:42;;;;;;;8.13;7.33;;;9.30;99.90;;;;;;5129089;27;20664;-72
2022/11/07 00:12:09;;;;;;;9.70;8.43;;;9.30;99.90;;;;;;5129239;27;20201;-72
2022/11/07 00:14:37;;;;;;;9.10;8.10;;;9.30;99.90;;;;;;5121424;27;20198;-72
2022/11/07 00:17:04;;;;;;;8.70;7.80;;;9.30;99.90;;;;;;5123669;27;20674;-72
2022/11/07 00:19:31;;;;;;;8.57;7.63;;;9.20;99.90;;;;;;5129012;27;20212;-72
2022/11/07 00:21:57;;;;;;;9.00;7.37;;;9.30;99.90;;;;;;5128901;27;20210;-72
2022/11/07 00:24:24;;;;;;;8.10;7.30;;;9.30;99.90;;;;;;5128935;27;20237;-72
2022/11/07 00:26:51;;;;;;;8.27;7.47;;;9.20;99.90;;;;;;5118250;27;20201;-72
2022/11/07 00:29:19;;;;;;;8.43;7.50;;;9.30;99.90;;;;;;5118457;27;20229;-72
2022/11/07 00:31:48;;;;;;;8.03;7.30;;;9.20;99.90;;;;;;5126535;27;20197;-72
2022/11/07 00:34:15;;;;;;;8.23;7.40;;;9.20;99.90;;;;;;5110308;27;20220;-72
2022/11/07 00:36:42;;;;;;;7.63;6.93;;;9.20;99.90;;;;;;5128485;27;20212;-71
2022/11/07 00:39:10;;;;;;;8.13;7.33;;;9.20;99.90;;;;;;5128815;27;20212;-72
2022/11/07 00:41:37;;;;;;;8.13;7.43;;;9.20;99.90;;;;;;5128775;27;20209;-72
2022/11/07 00:44:04;;;;;;;8.10;7.40;;;9.20;99.90;;;;;;5128716;27;20237;-71
2022/11/07 00:46:31;;;;;;;7.20;6.50;;;9.20;99.90;;;;;;5128849;27;20205;-72
2022/11/07 00:48:59;;;;;;;8.87;6.60;;;9.20;99.90;;;;;;5126888;27;20206;-72
2022/11/07 00:51:27;;;;;;;7.67;6.97;;;9.20;99.90;;;;;;5110382;27;20205;-72
2022/11/07 00:53:54;;;;;;;7.50;6.53;;;9.30;99.90;;;;;;5107766;28;20217;-72
2022/11/07 00:56:23;;;;;;;7.93;7.20;;;9.20;99.90;;;;;;5120356;27;20200;-72
2022/11/07 00:58:54;;;;;;;7.57;6.77;;;9.30;99.90;;;;;;5112126;27;20206;-72
2022/11/07 01:01:23;;;;;;;7.47;6.73;;;9.30;99.90;;;;;;5107975;28;20227;-72
2022/11/07 01:06:37;;;;;;;6.63;6.03;;;9.30;99.90;;;;;;5107597;28;20194;-72
2022/11/07 01:09:05;;;;;;;6.97;6.37;;;9.30;99.90;;;;;;5108032;28;20206;-71
2022/11/07 01:11:32;;;;;;;7.07;6.47;;;9.30;99.90;;;;;;5107916;28;20206;-71
2022/11/07 01:14:00;;;;;;;7.43;6.73;;;9.30;99.90;;;;;;5107473;28;20685;-71
2022/11/07 01:16:28;;;;;;;7.70;7.00;;;9.40;99.90;;;;;;5120102;28;20212;-72
2022/11/07 01:18:55;;;;;;;7.37;6.57;;;9.30;99.90;;;;;;5127804;27;20688;-71
2022/11/07 01:21:22;;;;;;;6.73;6.13;;;9.30;99.90;;;;;;5128070;27;20208;-72
2022/11/07 01:23:50;;;;;;;7.13;6.43;;;9.30;99.90;;;;;;5128042;27;20236;-71
2022/11/07 01:26:17;;;;;;;8.00;7.20;;;9.40;99.90;;;;;;5133493;27;20205;-71
2022/11/07 01:28:44;;;;;;;8.40;7.00;;;9.30;99.90;;;;;;5149002;27;20208;-72
2022/11/07 01:31:13;;;;;;;7.40;6.70;;;9.30;99.90;;;;;;5134501;27;20218;-72
2022/11/07 01:33:40;;;;;;;7.33;6.63;;;9.30;99.90;;;;;;5107516;28;20214;-72
2022/11/07 01:36:10;;;;;;;7.00;6.40;;;9.30;99.90;;;;;;5123958;27;20197;-69
2022/11/07 01:38:38;;;;;;;6.60;6.10;;;9.40;99.90;;;;;;5128044;27;20205;-69
2022/11/07 01:41:23;;;;;;;6.97;6.30;;;9.40;99.90;;;;;;5128066;27;20213;-69
2022/11/07 01:43:53;;;;;;;6.97;6.27;;;9.40;99.90;;;;;;5128076;27;20598;-69
2022/11/07 01:46:21;;;;;;;6.60;6.00;;;9.40;99.90;;;;;;5127975;27;20208;-69
2022/11/07 01:48:52;;;;;;;6.77;6.17;;;9.40;99.90;;;;;;5125870;27;20205;-70
2022/11/07 01:51:20;;;;;;;7.30;6.60;;;9.40;99.90;;;;;;5127674;27;20567;-70
2022/11/07 01:53:47;;;;;;;7.37;6.47;;;9.40;99.90;;;;;;5127779;27;20197;-70
2022/11/07 01:56:18;;;;;;;6.67;6.13;;;9.40;99.90;;;;;;5133159;27;20205;-69
2022/11/07 01:58:46;;;;;;;6.50;6.00;;;9.40;99.90;;;;;;5148860;27;20493;-69
2022/11/07 02:01:14;;;;;;;6.73;6.13;;;9.30;99.90;;;;;;5136460;27;20221;-69
2022/11/07 02:03:41;;;;;;;6.70;6.10;;;9.30;99.90;;;;;;5127586;27;20229;-70
2022/11/07 02:06:13;;;;;;;7.60;6.30;;;9.30;99.90;;;;;;5127994;27;20202;-69
2022/11/07 02:08:42;;;;;;;6.83;6.23;;;9.40;99.90;;;;;;5130993;27;20186;-69
2022/11/07 02:11:11;;;;;;;6.63;6.03;;;9.40;99.90;;;;;;5131241;27;20212;-69
2022/11/07 02:13:39;;;;;;;6.97;6.27;;;9.40;99.90;;;;;;5129792;27;20664;-70
2022/11/07 02:16:06;;;;;;;6.97;6.37;;;9.40;99.90;;;;;;5110826;28;20214;-69
2022/11/07 02:18:35;;;;;;;6.20;5.70;;;9.40;99.90;;;;;;5110787;28;20198;-69
2022/11/07 02:21:09;;;;;;;7.03;6.33;;;9.40;99.90;;;;;;5117441;27;20250;-70
2022/11/07 02:23:44;;;;;;;6.87;6.20;;;9.40;99.90;;;;;;5131242;27;20300;-70
2022/11/07 02:26:12;;;;;;;7.43;6.07;;;9.50;99.90;;;;;;5135926;27;20223;-70
2022/11/07 02:28:41;;;;;;;6.90;6.30;;;9.50;99.90;;;;;;5114049;27;20206;-70
2022/11/07 02:31:08;;;;;;;6.60;6.10;;;9.40;99.90;;;;;;5116946;27;20206;-69
2022/11/07 02:33:35;;;;;;;6.97;6.27;;;9.40;99.90;;;;;;5131225;27;20292;-69
2022/11/07 02:36:02;;;;;;;6.20;5.70;;;9.40;99.90;;;;;;5130762;27;20254;-70
2022/11/07 02:38:32;;;;;;;6.73;6.13;;;9.40;99.90;;;;;;5131074;27;20266;-69
2022/11/07 02:41:03;;;;;;;6.83;6.20;;;9.40;99.90;;;;;;5130868;27;20198;-69
2022/11/07 02:43:34;;;;;;;7.40;6.70;;;9.40;99.90;;;;;;5131234;27;20232;-72
2022/11/07 02:46:04;;;;;;;6.87;6.17;;;9.40;99.90;;;;;;5130560;27;20675;-72
2022/11/07 02:48:32;;;;;;;6.50;6.00;;;9.40;99.90;;;;;;5130885;27;20209;-72
2022/11/07 02:50:59;;;;;;;6.37;5.80;;;9.40;99.90;;;;;;5130425;27;20205;-72
2022/11/07 02:53:26;;;;;;;6.47;5.97;;;9.30;99.90;;;;;;5128565;27;20234;-71
2022/11/07 02:55:53;;;;;;;6.40;5.87;;;9.30;99.90;;;;;;5132571;27;20226;-71
2022/11/07 02:58:20;;;;;;;6.73;6.00;;;9.40;99.90;;;;;;5118143;27;20202;-71
2022/11/07 03:00:48;;;;;;;7.37;5.77;;;9.40;99.90;;;;;;5109877;28;20241;-72
2022/11/07 03:03:14;;;;;;;7.13;6.43;;;9.40;99.90;;;;;;5110101;28;20234;-72
2022/11/07 03:05:41;;;;;;;6.43;5.87;;;9.40;99.90;;;;;;5109768;28;20205;-72
2022/11/07 03:08:08;;;;;;;6.63;6.03;;;9.40;99.90;;;;;;5110272;28;20202;-71
2022/11/07 03:10:35;;;;;;;6.37;5.77;;;9.40;99.90;;;;;;5111633;27;20214;-71
2022/11/07 03:13:01;;;;;;;6.47;5.97;;;9.40;99.90;;;;;;5109635;28;20213;-71
2022/11/07 03:15:28;;;;;;;6.27;5.67;;;9.40;99.90;;;;;;5109934;28;20205;-71
2022/11/07 03:17:58;;;;;;;7.00;6.30;;;9.40;99.90;;;;;;5109628;28;20206;-71
2022/11/07 03:20:25;;;;;;;6.60;6.07;;;9.40;99.90;;;;;;5111084;27;20644;-71
2022/11/07 03:22:52;;;;;;;6.13;5.60;;;9.40;99.90;;;;;;5129894;27;20743;-71
2022/11/07 03:25:19;;;;;;;6.03;5.53;;;9.30;99.90;;;;;;5109950;27;20214;-71
2022/11/07 03:27:46;;;;;;;6.43;5.93;;;9.40;99.90;;;;;;5127692;27;20198;-70
2022/11/07 03:30:14;;;;;;;6.00;5.47;;;9.30;99.90;;;;;;5109105;28;20653;-70
2022/11/07 03:32:40;;;;;;;6.00;5.50;;;9.30;99.90;;;;;;5109384;28;20202;-71
2022/11/07 03:35:09;;;;;;;6.40;5.90;;;9.30;99.90;;;;;;5109180;28;20217;-70
2022/11/07 03:37:36;;;;;;;6.10;5.60;;;9.30;99.90;;;;;;5109068;28;20206;-71
2022/11/07 03:40:03;;;;;;;5.97;5.57;;;9.40;99.90;;;;;;5109389;28;20217;-71
2022/11/07 03:42:30;;;;;;;5.87;5.37;;;9.40;99.90;;;;;;5109455;28;20202;-71
2022/11/07 03:44:57;;;;;;;6.63;6.07;;;9.40;99.90;;;;;;5109123;27;20237;-70
2022/11/07 03:47:23;;;;;;;6.20;5.70;;;9.40;99.90;;;;;;5142062;27;20201;-70
2022/11/07 03:49:50;;;;;;;5.70;5.17;;;9.40;99.90;;;;;;5150208;27;20209;-70
2022/11/07 03:52:18;;;;;;;5.67;5.17;;;9.40;99.90;;;;;;5147057;27;20200;-70
2022/11/07 03:54:45;;;;;;;6.17;5.67;;;9.40;99.90;;;;;;5129427;27;20208;-70
2022/11/07 03:57:12;;;;;;;5.87;5.47;;;9.40;99.90;;;;;;5142839;27;20250;-71
2022/11/07 03:59:38;;;;;;;5.67;5.20;;;9.50;99.90;;;;;;5149896;27;20255;-70
2022/11/07 04:02:05;;;;;;;8.50;5.60;;;9.40;99.90;;;;;;5150345;27;20205;-70
2022/11/07 04:04:32;;;;;;;5.80;5.40;;;9.50;99.90;;;;;;5149934;27;20227;-70
2022/11/07 04:06:58;;;;;;;5.30;4.90;;;9.40;99.90;;;;;;5149825;27;20212;-70
2022/11/07 04:09:26;;;;;;;5.97;5.40;;;9.50;99.90;;;;;;5150137;27;20205;-70
2022/11/07 04:17:21;;;;;;;6.17;5.57;;;9.50;99.90;;;;;;5149660;27;20554;-70
2022/11/07 04:19:50;;;;;;;5.30;4.80;;;9.50;99.90;;;;;;5138276;27;20203;-70
2022/11/07 04:22:17;;;;;;;5.17;4.77;;;9.40;99.90;;;;;;5128527;27;20224;-69
2022/11/07 04:24:46;;;;;;;5.40;4.90;;;9.40;99.90;;;;;;5113406;27;20708;-69
2022/11/07 04:29:58;;;;;;;5.43;5.03;;;9.40;99.90;;;;;;5128273;27;20188;-69
2022/11/07 04:32:25;;;;;;;5.20;4.80;;;9.40;99.90;;;;;;5129029;27;20201;-69
2022/11/07 04:34:52;;;;;;;5.40;4.90;;;9.40;99.90;;;;;;5128395;27;20209;-70
2022/11/07 04:37:19;;;;;;;4.93;4.60;;;9.40;99.90;;;;;;5128528;27;20213;-69
2022/11/07 04:39:47;;;;;;;4.63;4.33;;;9.30;99.90;;;;;;5128534;27;20212;-70
2022/11/07 04:42:14;;;;;;;5.10;4.70;;;9.30;99.90;;;;;;5128637;27;20212;-69
2022/11/07 04:44:40;;;;;;;5.10;4.70;;;9.30;99.90;;;;;;5128264;27;20863;-70
2022/11/07 04:47:07;;;;;;;5.30;4.90;;;9.30;99.90;;;;;;5119509;27;20213;-70
2022/11/07 04:49:34;;;;;;;6.00;5.50;;;9.30;99.90;;;;;;5107874;28;20209;-69
2022/11/07 04:52:01;;;;;;;5.87;4.70;;;9.30;99.90;;;;;;5107787;28;20210;-69
2022/11/07 04:54:27;;;;;;;5.20;4.80;;;9.30;99.90;;;;;;5107988;28;20202;-69
2022/11/07 04:56:55;;;;;;;4.67;4.37;;;9.30;99.90;;;;;;5129546;27;20208;-69
2022/11/07 04:59:22;;;;;;;5.17;4.63;;;9.30;99.90;;;;;;5149016;27;20225;-69
2022/11/07 05:01:49;;;;;;;4.80;4.50;;;9.40;99.90;;;;;;5149396;27;20193;-70
2022/11/07 05:04:16;;;;;;;4.87;4.50;;;9.40;99.90;;;;;;5139596;27;20319;-70
2022/11/07 05:06:43;;;;;;;5.03;4.63;;;9.40;99.90;;;;;;5128157;27;20208;-71
2022/11/07 05:09:14;;;;;;;4.67;4.37;;;9.40;99.90;;;;;;5128679;27;20232;-71
2022/11/07 05:11:41;;;;;;;4.27;3.97;;;9.40;99.90;;;;;;5128201;27;20190;-70
2022/11/07 05:14:09;;;;;;;4.60;4.30;;;9.40;99.90;;;;;;5128416;27;20201;-70
2022/11/07 05:16:37;;;;;;;4.33;4.00;;;9.30;99.90;;;;;;5118991;27;20209;-69
2022/11/07 05:19:04;;;;;;;5.00;4.50;;;9.40;99.90;;;;;;5107115;28;20657;-69
2022/11/07 05:21:31;;;;;;;4.77;4.27;;;9.40;99.90;;;;;;5127737;27;20209;-70
2022/11/07 05:23:56;;;;;;;4.53;4.23;;;9.50;99.90;;;;;;5127638;27;20233;-69
2022/11/07 05:26:23;;;;;;;4.63;4.23;;;9.40;99.90;;;;;;5132648;27;20201;-69
2022/11/07 05:28:50;;;;;;;4.33;3.93;;;9.40;99.90;;;;;;5107594;28;20198;-69
2022/11/07 05:31:18;;;;;;;4.10;3.80;;;9.40;99.90;;;;;;5107763;28;20221;-69
2022/11/07 05:33:45;;;;;;;3.90;3.60;;;9.50;99.90;;;;;;5107611;28;20209;-71
2022/11/07 05:36:13;;;;;;;4.43;4.10;;;9.40;99.90;;;;;;5107487;28;20566;-71
2022/11/07 05:38:42;;;;;;;5.60;3.47;;;9.50;99.90;;;;;;5113452;27;20201;-71
2022/11/07 05:41:08;;;;;;;3.97;3.67;;;9.50;99.90;;;;;;5128123;27;20254;-70
2022/11/07 05:43:36;;;;;;;3.90;3.60;;;9.50;99.90;;;;;;5131231;27;20217;-70
2022/11/07 05:46:04;;;;;;;3.80;3.47;;;9.50;99.90;;;;;;5131663;27;20213;-70
2022/11/07 05:48:32;;;;;;;4.13;3.50;;;9.50;99.90;;;;;;5132133;27;20236;-70
2022/11/07 05:50:59;;;;;;;3.70;3.50;;;9.50;99.90;;;;;;5131953;27;20205;-71
2022/11/07 05:53:26;;;;;;;3.53;3.33;;;9.60;99.90;;;;;;5116797;27;20402;-71
2022/11/07 05:55:53;;;;;;;3.57;3.27;;;9.60;99.90;;;;;;5115226;27;20217;-71
2022/11/07 05:58:20;;;;;;;3.43;3.13;;;9.60;99.90;;;;;;5111615;28;20748;-72
2022/11/07 06:00:48;;;;;;;3.87;3.57;;;9.60;99.90;;;;;;5110906;28;20225;-71
2022/11/07 06:03:14;;;;;;;3.50;3.20;;;9.60;99.90;;;;;;5111241;28;20233;-71
2022/11/07 06:05:43;;;;;;;3.67;3.37;;;9.60;99.90;;;;;;5110767;28;20381;-70
2022/11/07 06:08:11;;;;;;;3.37;3.17;;;9.60;99.90;;;;;;5110923;28;20676;-70
2022/11/07 06:10:39;;;;;;;3.20;3.00;;;9.60;99.90;;;;;;5110697;27;20680;-71
2022/11/07 06:13:08;;;;;;;3.90;3.13;;;9.60;99.90;;;;;;5112740;27;20213;-70
2022/11/07 06:15:36;;;;;;;3.07;2.73;;;9.60;99.90;;;;;;5111983;27;20823;-71
2022/11/07 06:18:04;;;;;;;3.27;3.07;;;9.70;99.90;;;;;;5131151;27;20624;-71
2022/11/07 06:20:31;;;;;;;3.27;3.00;;;9.70;99.90;;;;;;5131285;27;20209;-70
2022/11/07 06:23:00;;;;;;;3.10;2.90;;;9.70;99.90;;;;;;5131291;27;20217;-70
2022/11/07 06:25:27;;;;;;;3.17;2.97;;;9.70;99.90;;;;;;5130983;27;20240;-70
2022/11/07 06:27:58;;;;;;;3.10;2.90;;;9.70;99.90;;;;;;5111491;27;20202;-70
2022/11/07 06:30:25;;;;;;;3.10;2.83;;;9.70;99.90;;;;;;5110957;28;20206;-70
2022/11/07 06:32:52;;;;;;;3.07;2.87;;;9.70;99.90;;;;;;5110252;28;20209;-71
2022/11/07 06:35:19;;;;;;;3.40;3.10;;;9.70;99.90;;;;;;5110533;28;20206;-70
2022/11/07 06:37:45;;;;;;;3.03;2.87;;;9.70;99.90;;;;;;5110244;27;20554;-71
2022/11/07 06:40:14;;;;;;;2.90;2.80;;;9.80;99.90;;;;;;5110123;27;20680;-71
2022/11/07 06:42:40;;;;;;;3.20;3.00;;;9.70;99.90;;;;;;5110117;28;20202;-71
2022/11/07 06:45:08;;;;;;;3.23;2.93;;;9.80;99.90;;;;;;5110343;27;20252;-71
2022/11/07 06:47:34;;;;;;;4.30;3.20;;;9.80;99.90;;;;;;5110339;28;20232;-70
2022/11/07 06:50:01;;;;;;;3.17;2.97;;;9.80;99.90;;;;;;5109891;28;20209;-71
2022/11/07 06:52:28;;;;;;;3.40;3.13;;;9.80;99.90;;;;;;5109843;28;20683;-71
2022/11/07 06:54:55;;;;;;;3.67;2.93;;;9.80;99.90;;;;;;5129635;27;20201;-71
2022/11/07 06:57:23;;;;;;;3.40;3.10;;;9.80;99.90;;;;;;5145188;27;20214;-70
2022/11/07 06:59:49;;;;;;;3.30;3.10;;;9.80;99.90;;;;;;5127074;27;20237;-71
2022/11/07 07:02:16;;;;;;;3.10;2.90;;;9.80;99.90;;;;;;5109949;28;20244;-71
2022/11/07 07:04:43;;;;;;;3.83;3.00;;;9.80;99.90;;;;;;5109594;28;20514;-70
2022/11/07 07:07:10;;;;;;;2.93;2.73;;;9.80;99.90;;;;;;5109709;27;20251;-70
2022/11/07 07:09:36;;;;;;;3.03;2.83;;;9.80;99.90;;;;;;5125128;27;20213;-72
2022/11/07 07:12:04;;;;;;;4.13;2.83;;;9.80;99.90;;;;;;5129164;27;20206;-72
2022/11/07 07:14:32;;;;;;;2.67;2.50;;;9.80;99.90;;;;;;5130157;27;20208;-72
2022/11/07 07:16:59;;;;;;;2.63;2.43;;;9.80;99.90;;;;;;5130217;27;20292;-72
2022/11/07 07:19:25;;;;;;;3.00;2.80;;;9.80;99.90;;;;;;5129907;27;20197;-70
2022/11/07 07:21:52;;;;;;;3.63;2.60;;;9.80;99.90;;;;;;5120874;27;20582;-70
2022/11/07 07:24:19;;;;;;;2.90;2.70;;;9.90;99.90;;;;;;5109193;28;20685;-72
2022/11/07 07:26:46;;;;;;;2.53;2.43;;;9.90;99.90;;;;;;5125182;27;20229;-72
2022/11/07 07:29:12;;;;;;;2.87;2.67;;;9.90;99.90;;;;;;5130023;27;20201;-72
2022/11/07 07:31:40;;;;;;;2.57;2.37;;;9.90;99.90;;;;;;5130010;27;20213;-72
2022/11/07 07:34:07;;;;;;;2.43;2.27;;;9.90;99.90;;;;;;5129796;27;20202;-72
2022/11/07 07:36:34;;;;;;;3.13;2.53;;;10.00;99.90;;;;;;5129750;27;20209;-71
2022/11/07 07:39:01;;;;;;;2.67;2.43;;;10.00;99.90;;;;;;5129612;27;20554;-71
2022/11/07 07:41:27;;;;;;;3.60;2.70;;;10.00;99.90;;;;;;5129759;27;20220;-71
2022/11/07 07:43:54;;;;;;;2.13;2.00;;;10.00;99.90;;;;;;5129681;27;20217;-71
2022/11/07 07:46:23;;;;;;;3.40;2.17;;;10.00;99.90;;;;;;5121874;27;20279;-71
2022/11/07 07:48:51;;;;;;;2.60;2.40;;;10.00;99.90;;;;;;5108541;28;20691;-71
2022/11/07 07:51:18;;;;;;;2.00;1.90;;;10.00;99.90;;;;;;5109200;28;20198;-71
2022/11/07 07:53:44;;;;;;;2.40;2.20;;;10.10;99.90;;;;;;5108897;28;20210;-71
2022/11/07 07:56:11;;;;;;;2.30;2.20;;;10.20;99.90;;;;;;5114391;27;20208;-70
2022/11/07 07:58:38;;;;;;;2.47;2.37;;;10.30;99.90;;;;;;5108631;28;20309;-71
2022/11/07 08:01:09;;;;;;;3.17;2.27;;;10.30;99.90;;;;;;5108548;28;20241;-71
2022/11/07 08:03:36;;;;;;;2.40;2.17;;;10.40;99.90;;;;;;5108456;28;20644;-71
2022/11/07 08:06:05;;;;;;;2.40;2.20;;;10.50;99.90;;;;;;5111444;27;20230;-72
2022/11/07 08:08:32;;;;;;;2.43;2.20;;;10.60;99.90;;;;;;5127074;27;20752;-72
2022/11/07 08:11:01;;;;;;;1.93;1.80;;;10.70;99.90;;;;;;5128612;27;20205;-72
2022/11/07 08:13:29;;;;;;;2.30;2.10;;;10.70;99.90;;;;;;5129204;27;20213;-71
2022/11/07 08:15:56;;;;;;;2.20;2.00;;;10.70;99.90;;;;;;5129075;27;20237;-71
2022/11/07 08:18:23;;;;;;;2.57;2.37;;;10.80;99.90;;;;;;5129052;27;20201;-71
2022/11/07 08:20:51;;;;;;;2.17;1.97;;;10.90;99.90;;;;;;5128447;27;20675;-72
2022/11/07 08:23:20;;;;;;;2.03;1.93;;;11.00;99.90;;;;;;5126910;27;20217;-70
2022/11/07 08:25:51;;;;;;;2.20;2.00;;;11.00;99.90;;;;;;5117885;27;20225;-70
2022/11/07 08:28:19;;;;;;;2.10;2.00;;;11.00;99.90;;;;;;5135899;27;20246;-70
2022/11/07 08:30:46;;;;;;;2.00;1.90;;;11.10;99.90;;;;;;5108209;28;20198;-69
2022/11/07 08:33:13;;;;;;;2.33;2.00;;;11.20;99.90;;;;;;5107655;27;20214;-69
2022/11/07 08:35:40;;;;;;;1.70;1.60;;;11.30;99.90;;;;;;5112269;27;20217;-69
2022/11/07 08:38:07;;;;;;;2.10;1.80;;;11.30;99.90;;;;;;5114200;27;20209;-70
2022/11/07 08:40:35;;;;;;;3.43;1.70;;;11.30;99.90;;;;;;5126189;27;20209;-70
2022/11/07 08:43:02;;;;;;;2.23;1.83;;;11.30;99.90;;;;;;5126106;27;20707;-69
2022/11/07 08:45:28;;;;;;;3.03;1.80;;;11.20;99.90;;;;;;5124181;27;20729;-69
2022/11/07 08:47:59;;;;;;;2.20;1.50;;;11.20;99.90;;;;;;5125952;27;20681;-69
2022/11/07 08:50:26;;;;;;;2.47;1.70;;;11.20;99.90;;;;;;5124018;27;20284;-69
2022/11/07 08:52:53;;;;;;;1.87;1.77;;;11.20;99.90;;;;;;5114458;27;20193;-70
2022/11/07 08:55:20;;;;;;;1.93;1.70;;;11.20;99.90;;;;;;5105306;28;20232;-69
2022/11/07 08:57:48;;;;;;;5.07;4.57;;;11.20;99.90;;;;;;5104631;28;20696;-70
2022/11/07 09:00:15;;;;;;;4.27;3.10;;;11.20;99.90;;;;;;5105587;28;20233;-70
2022/11/07 09:02:42;;;;;;;2.33;2.23;;;11.30;99.90;;;;;;5105732;28;20208;-69
2022/11/07 09:05:09;;;;;;;3.23;2.97;;;11.30;99.90;;;;;;5106567;28;20230;-69
2022/11/07 09:07:38;;;;;;;4.77;1.80;;;11.30;99.90;;;;;;5106124;28;20202;-70
2022/11/07 09:10:05;;;;;;;3.07;1.97;;;11.30;99.90;;;;;;5119976;28;20545;-69
2022/11/07 09:12:32;;;;;;;1.70;1.60;;;11.30;99.90;;;;;;5127335;27;20205;-69
2022/11/07 09:15:00;;;;;;;2.20;1.90;;;11.30;99.90;;;;;;5126281;27;20208;-69
2022/11/07 09:17:28;;;;;;;1.83;1.73;;;11.40;99.90;;;;;;5129447;27;20220;-69
2022/11/07 09:19:54;;;;;;;3.00;1.80;;;11.40;99.90;;;;;;5130364;27;20205;-69
2022/11/07 09:22:22;;;;;;;1.83;1.60;;;11.40;99.90;;;;;;5130255;27;20201;-70
2022/11/07 09:24:49;;;;;;;1.37;1.27;;;11.60;99.90;;;;;;5129708;27;20209;-71
2022/11/07 09:27:15;;;;;;;1.83;1.73;;;11.90;99.90;;;;;;5141886;27;20253;-71
2022/11/07 09:29:42;;;;;;;3.33;1.53;;;12.00;99.90;;;;;;5130548;27;20209;-69
2022/11/07 09:32:10;;;;;;;1.87;1.60;;;12.00;99.90;;;;;;5125937;27;20212;-69
2022/11/07 09:34:38;;;;;;;2.77;1.70;;;12.00;99.90;;;;;;5125919;27;20224;-69
2022/11/07 09:37:05;;;;;;;1.80;1.70;;;12.00;99.90;;;;;;5130548;27;20258;-69
2022/11/07 09:39:32;;;;;;;2.43;1.70;;;12.10;99.90;;;;;;5130615;27;20209;-69
2022/11/07 09:42:06;;;;;;;1.90;1.40;;;12.10;99.90;;;;;;5130391;27;20671;-69
2022/11/07 09:44:46;;;;;;;2.23;1.57;;;12.10;99.90;;;;;;5130298;27;20226;-69
2022/11/07 09:47:19;;;;;;;2.13;1.60;;;12.30;99.90;;;;;;5130045;27;20193;-69
2022/11/07 09:49:49;;;;;;;1.90;1.80;;;12.40;99.90;;;;;;5129260;27;20758;-69
2022/11/07 09:52:23;;;;;;;1.90;1.70;;;12.50;99.90;;;;;;5129991;27;20210;-69
2022/11/07 09:54:55;;;;;;;2.47;1.50;;;12.60;99.90;;;;;;5128089;27;20567;-69
2022/11/07 09:57:23;;;;;;;1.23;1.23;;;12.60;99.90;;;;;;5117046;27;20218;-69
2022/11/07 09:59:53;;;;;;;1.67;1.57;;;12.70;99.90;;;;;;5125448;27;20240;-69
2022/11/07 10:02:25;;;;;;;1.60;1.50;;;12.80;99.90;;;;;;5129455;27;20229;-69
2022/11/07 10:04:56;;;;;;;1.73;1.40;;;12.90;99.90;;;;;;5129840;27;20566;-69
2022/11/07 10:07:36;;;;;;;2.33;1.50;;;13.00;99.90;;;;;;5129518;27;20537;-69
2022/11/07 10:10:10;;;;;;;1.60;1.50;;;13.10;99.90;;;;;;5129153;27;20197;-69
2022/11/07 10:12:51;;;;;;;2.80;1.77;;;13.10;99.90;;;;;;5113769;27;20187;-69
2022/11/07 10:15:24;;;;;;;2.33;1.50;;;13.20;99.90;;;;;;5112522;27;20197;-70
2022/11/07 10:18:00;;;;;;;1.83;1.30;;;13.20;99.90;;;;;;5129139;27;20341;-69
2022/11/07 10:20:44;;;;;;;1.77;1.53;;;13.30;99.90;;;;;;5117399;27;20193;-69
2022/11/07 10:23:29;;;;;;;4.83;1.63;;;13.40;99.90;;;;;;5107773;28;20222;-70
2022/11/07 10:26:02;;;;;;;2.23;1.57;;;13.50;99.90;;;;;;5110298;27;20227;-69
2022/11/07 10:28:30;;;;;;;2.83;1.70;;;13.60;99.90;;;;;;5107973;27;20214;-69
2022/11/07 10:31:01;;;;;;;1.67;1.50;;;13.60;99.90;;;;;;5129330;27;20209;-69
2022/11/07 10:33:39;;;;;;;1.57;1.37;;;13.70;99.90;;;;;;5129206;27;20209;-69
2022/11/07 10:36:15;;;;;;;2.73;1.80;;;13.80;99.90;;;;;;5127715;27;20263;-69
2022/11/07 10:38:42;;;;;;;2.53;1.40;;;14.00;99.90;;;;;;5128918;27;20644;-69
2022/11/07 10:41:15;;;;;;;2.30;1.53;;;14.00;99.90;;;;;;5125109;27;20201;-69
2022/11/07 10:43:45;;;;;;;3.20;1.60;;;14.10;99.90;;;;;;5128551;27;20221;-71
2022/11/07 10:46:17;;;;;;;2.33;1.53;;;14.20;99.90;;;;;;5129601;27;20225;-70
2022/11/07 10:48:52;;;;;;;2.13;1.40;;;14.20;99.90;;;;;;5128556;27;20947;-71
2022/11/07 10:51:19;;;;;;;1.80;1.30;;;14.20;99.90;;;;;;5128474;27;20232;-69
2022/11/07 10:53:46;;;;;;;2.93;1.40;;;14.20;99.90;;;;;;5128310;27;20205;-69
2022/11/07 10:56:18;;;;;;;1.53;1.20;;;14.30;99.90;;;;;;5133466;27;20209;-69
2022/11/07 10:58:46;;;;;;;5.07;1.70;;;14.30;99.90;;;;;;5138337;27;20181;-69
2022/11/07 11:01:13;;;;;;;2.77;1.50;;;14.40;99.90;;;;;;5128216;27;20425;-69
2022/11/07 11:03:42;;;;;;;3.67;1.40;;;14.50;99.90;;;;;;5126490;27;20201;-69
2022/11/07 11:06:20;;;;;;;2.20;1.50;;;14.50;99.90;;;;;;5110547;27;20226;-70
2022/11/07 11:08:48;;;;;;;3.43;1.60;;;14.60;99.90;;;;;;5107487;28;20197;-69
2022/11/07 11:11:23;;;;;;;3.83;1.37;;;14.70;99.90;;;;;;5107673;27;20683;-70
2022/11/07 11:14:01;;;;;;;3.47;2.43;;;14.80;99.90;;;;;;5107798;28;20194;-69
2022/11/07 11:16:30;;;;;;;2.80;2.10;;;14.90;99.90;;;;;;5121246;27;20234;-69
2022/11/07 11:18:59;;;;;;;2.27;1.97;;;14.90;99.90;;;;;;5128360;27;20215;-69
2022/11/07 11:21:39;;;;;;;4.93;3.57;;;14.80;99.90;;;;;;5128533;27;20208;-70
2022/11/07 11:24:15;;;;;;;3.50;2.10;;;14.70;99.90;;;;;;5127727;27;20217;-69
2022/11/07 11:26:44;;;;;;;3.23;2.60;;;14.80;99.90;;;;;;5129102;27;20217;-69
2022/11/07 11:29:18;;;;;;;2.37;2.10;;;14.70;99.90;;;;;;5114669;27;20202;-69
2022/11/07 11:31:50;;;;;;;2.07;1.70;;;14.60;99.90;;;;;;5126388;27;20193;-69
2022/11/07 11:34:24;;;;;;;2.17;1.60;;;14.50;99.90;;;;;;5120064;27;20224;-69
2022/11/07 11:37:01;;;;;;;1.40;1.30;;;14.50;99.90;;;;;;5128123;27;20292;-70
2022/11/07 11:39:33;;;;;;;1.57;1.40;;;14.60;99.90;;;;;;5127158;27;20556;-70
2022/11/07 11:42:00;;;;;;;2.20;1.60;;;14.70;99.90;;;;;;5125339;27;20197;-69
2022/11/07 11:44:34;;;;;;;4.40;1.63;;;14.80;99.90;;;;;;5116512;27;20226;-69
2022/11/07 11:47:09;;;;;;;4.13;1.57;;;14.90;99.90;;;;;;5107514;28;20222;-69
2022/11/07 11:49:43;;;;;;;3.10;1.53;;;15.00;99.90;;;;;;5107386;28;20716;-69
2022/11/07 11:52:16;;;;;;;2.07;1.50;;;15.00;99.90;;;;;;5107683;28;20195;-69
2022/11/07 11:54:43;;;;;;;1.67;1.43;;;15.00;99.90;;;;;;5107558;28;20190;-69
2022/11/07 11:57:14;;;;;;;1.60;1.50;;;15.10;99.90;;;;;;5109222;27;20206;-69
2022/11/07 12:00:03;;;;;;;2.67;1.60;;;15.10;99.90;;;;;;5107012;28;20244;-69
2022/11/07 12:02:49;;;;;;;2.13;1.93;;;15.00;99.90;;;;;;5107330;28;20201;-69
2022/11/07 12:05:26;;;;;;;3.80;1.50;;;15.00;99.90;;;;;;5107210;28;20198;-69
2022/11/07 12:08:08;;;;;;;2.07;1.30;;;15.10;99.90;;;;;;5106966;28;20656;-69
2022/11/07 12:10:41;;;;;;;2.53;1.57;;;15.00;99.90;;;;;;5107262;28;20279;-69
2022/11/07 12:13:17;;;;;;;4.90;1.57;;;15.10;99.90;;;;;;5123044;27;20201;-69
2022/11/07 12:15:52;;;;;;;2.93;1.53;;;15.20;99.90;;;;;;5127665;27;20204;-69
2022/11/07 12:18:24;;;;;;;3.97;1.80;;;15.20;99.90;;;;;;5107298;28;20227;-69
2022/11/07 12:21:07;;;;;;;2.13;1.40;;;15.10;99.90;;;;;;5106885;27;20208;-69
2022/11/07 12:23:49;;;;;;;3.57;1.90;;;15.10;99.90;;;;;;5121177;27;20204;-70
2022/11/07 12:26:24;;;;;;;2.67;1.37;;;15.10;99.90;;;;;;5128143;27;20225;-69
2022/11/07 12:28:58;;;;;;;3.37;1.80;;;15.20;99.90;;;;;;5126597;27;20656;-69
2022/11/07 12:31:43;;;;;;;2.17;1.30;;;15.30;99.90;;;;;;5114845;27;20265;-69
2022/11/07 12:34:22;;;;;;;1.67;1.50;;;15.40;99.90;;;;;;5106409;28;20197;-70
2022/11/07 12:37:00;;;;;;;3.37;1.70;;;15.60;99.90;;;;;;5106113;28;20558;-70
2022/11/07 12:39:51;;;;;;;2.10;1.50;;;15.60;99.90;;;;;;5106563;28;20237;-70
2022/11/07 12:42:33;;;;;;;2.00;1.27;;;15.50;99.90;;;;;;5126707;27;20821;-71
2022/11/07 12:45:11;;;;;;;2.33;1.67;;;15.40;99.90;;;;;;5125222;27;20727;-70
2022/11/07 12:47:54;;;;;;;1.77;1.13;;;15.20;99.90;;;;;;5106449;28;20228;-70
2022/11/07 12:50:33;;;;;;;3.40;1.20;;;15.00;99.90;;;;;;5105826;28;20664;-72
2022/11/07 12:53:15;;;;;;;3.00;2.60;;;14.90;99.90;;;;;;5105444;28;20194;-71
2022/11/07 12:55:47;;;;;;;2.77;1.40;;;14.80;99.90;;;;;;5106656;27;20201;-71
2022/11/07 12:58:17;;;;;;;1.67;1.40;;;14.70;99.90;;;;;;5133773;27;20197;-71
2022/11/07 13:00:45;;;;;;;3.17;1.67;;;14.70;99.90;;;;;;5126711;27;20239;-70
2022/11/07 13:03:47;;;;;;;3.17;1.73;;;14.60;99.90;;;;;;5110431;27;20300;-70
2022/11/07 13:06:21;;;;;;;3.67;2.20;;;14.50;99.90;;;;;;5071474;27;20232;-70
2022/11/07 13:08:58;;;;;;;4.50;1.90;;;14.50;99.90;;;;;;5114144;28;20214;-70
2022/11/07 13:11:35;;;;;;;4.30;2.37;;;14.40;99.90;;;;;;5126485;27;20193;-70
2022/11/07 13:14:17;;;;;;;4.03;2.10;;;14.40;99.90;;;;;;5126499;27;20198;-69
2022/11/07 13:16:52;;;;;;;3.77;2.70;;;14.40;99.90;;;;;;5124538;27;20189;-70